sensor_id;sensor_type;location;lat;lon;timestamp;P1;durP1;ratioP1;P2;durP2;ratioP2
22622;SDS011;11478;51.094;7.030;2023-07-08T00:01:21;6.63;;;3.33;;
22622;SDS011;11478;51.094;7.030;2023-07-08T00:03:47;5.82;;;3.28;;
22622;SDS011;11478;51.094;7.030;2023-07-08T00:06:18;6.20;;;3.65;;
22622;SDS011;11478;51.094;7.030;2023-07-08T00:08:51;5.40;;;3.05;;
22622;SDS011;11478;51.094;7.030;2023-07-08T00:11:22;7.07;;;3.17;;
22622;SDS011;11478;51.094;7.030;2023-07-08T00:13:48;6.05;;;3.10;;
22622;SDS011;11478;51.094;7.030;2023-07-08T00:16:16;10.80;;;3.40;;
22622;SDS011;11478;51.094;7.030;2023-07-08T00:18:43;5.18;;;3.50;;
22622;SDS011;11478;51.094;7.030;2023-07-08T00:21:13;6.18;;;3.45;;
22622;SDS011;11478;51.094;7.030;2023-07-08T00:23:50;6.43;;;3.65;;
22622;SDS011;11478;51.094;7.030;2023-07-08T00:26:28;5.65;;;3.38;;
22622;SDS011;11478;51.094;7.030;2023-07-08T00:28:55;6.75;;;3.50;;
22622;SDS011;11478;51.094;7.030;2023-07-08T00:31:34;5.88;;;3.30;;
22622;SDS011;11478;51.094;7.030;2023-07-08T00:34:01;4.10;;;3.42;;
22622;SDS011;11478;51.094;7.030;2023-07-08T00:36:28;6.60;;;3.30;;
22622;SDS011;11478;51.094;7.030;2023-07-08T00:38:58;7.35;;;3.90;;
22622;SDS011;11478;51.094;7.030;2023-07-08T00:41:28;6.93;;;3.65;;
22622;SDS011;11478;51.094;7.030;2023-07-08T00:44:14;5.15;;;3.47;;
22622;SDS011;11478;51.094;7.030;2023-07-08T00:49:54;7.15;;;3.85;;
22622;SDS011;11478;51.094;7.030;2023-07-08T00:52:25;7.53;;;4.15;;
22622;SDS011;11478;51.094;7.030;2023-07-08T00:54:53;6.72;;;3.80;;
22622;SDS011;11478;51.094;7.030;2023-07-08T00:57:33;5.90;;;3.85;;
22622;SDS011;11478;51.094;7.030;2023-07-08T01:00:05;7.95;;;3.58;;
22622;SDS011;11478;51.094;7.030;2023-07-08T01:03:07;6.93;;;4.13;;
22622;SDS011;11478;51.094;7.030;2023-07-08T01:05:41;7.10;;;4.28;;
22622;SDS011;11478;51.094;7.030;2023-07-08T01:08:08;6.47;;;3.90;;
22622;SDS011;11478;51.094;7.030;2023-07-08T01:10:53;5.57;;;3.80;;
22622;SDS011;11478;51.094;7.030;2023-07-08T01:13:32;6.00;;;3.42;;
22622;SDS011;11478;51.094;7.030;2023-07-08T01:16:08;7.57;;;3.83;;
22622;SDS011;11478;51.094;7.030;2023-07-08T01:18:40;7.25;;;3.97;;
22622;SDS011;11478;51.094;7.030;2023-07-08T01:21:27;9.80;;;4.07;;
22622;SDS011;11478;51.094;7.030;2023-07-08T01:23:52;5.80;;;3.65;;
22622;SDS011;11478;51.094;7.030;2023-07-08T01:26:20;5.03;;;4.00;;
22622;SDS011;11478;51.094;7.030;2023-07-08T01:28:50;6.30;;;3.90;;
22622;SDS011;11478;51.094;7.030;2023-07-08T01:31:31;9.40;;;3.92;;
22622;SDS011;11478;51.094;7.030;2023-07-08T01:33:57;9.65;;;4.35;;
22622;SDS011;11478;51.094;7.030;2023-07-08T01:36:23;7.80;;;4.10;;
22622;SDS011;11478;51.094;7.030;2023-07-08T01:38:52;6.38;;;4.13;;
22622;SDS011;11478;51.094;7.030;2023-07-08T01:41:18;6.07;;;3.92;;
22622;SDS011;11478;51.094;7.030;2023-07-08T01:43:44;5.57;;;4.10;;
22622;SDS011;11478;51.094;7.030;2023-07-08T01:46:31;6.90;;;3.92;;
22622;SDS011;11478;51.094;7.030;2023-07-08T01:48:59;6.90;;;4.25;;
22622;SDS011;11478;51.094;7.030;2023-07-08T01:51:26;7.65;;;4.10;;
22622;SDS011;11478;51.094;7.030;2023-07-08T01:53:57;6.50;;;4.15;;
22622;SDS011;11478;51.094;7.030;2023-07-08T01:56:22;6.75;;;4.15;;
22622;SDS011;11478;51.094;7.030;2023-07-08T01:58:48;5.68;;;3.88;;
22622;SDS011;11478;51.094;7.030;2023-07-08T02:01:14;5.55;;;4.13;;
22622;SDS011;11478;51.094;7.030;2023-07-08T02:03:42;8.15;;;4.22;;
22622;SDS011;11478;51.094;7.030;2023-07-08T02:06:11;5.97;;;4.30;;
22622;SDS011;11478;51.094;7.030;2023-07-08T02:08:37;6.93;;;4.50;;
22622;SDS011;11478;51.094;7.030;2023-07-08T02:11:03;6.15;;;4.28;;
22622;SDS011;11478;51.094;7.030;2023-07-08T02:13:39;9.57;;;4.60;;
22622;SDS011;11478;51.094;7.030;2023-07-08T02:16:06;5.20;;;4.00;;
22622;SDS011;11478;51.094;7.030;2023-07-08T02:18:32;7.38;;;3.90;;
22622;SDS011;11478;51.094;7.030;2023-07-08T02:20:58;8.35;;;4.05;;
22622;SDS011;11478;51.094;7.030;2023-07-08T02:23:30;7.45;;;4.07;;
22622;SDS011;11478;51.094;7.030;2023-07-08T02:25:56;6.15;;;4.50;;
22622;SDS011;11478;51.094;7.030;2023-07-08T02:28:22;7.63;;;4.35;;
22622;SDS011;11478;51.094;7.030;2023-07-08T02:30:48;7.90;;;4.47;;
22622;SDS011;11478;51.094;7.030;2023-07-08T02:33:14;5.13;;;4.30;;
22622;SDS011;11478;51.094;7.030;2023-07-08T02:35:43;5.22;;;4.20;;
22622;SDS011;11478;51.094;7.030;2023-07-08T02:38:10;7.43;;;4.53;;
22622;SDS011;11478;51.094;7.030;2023-07-08T02:40:38;7.32;;;4.53;;
22622;SDS011;11478;51.094;7.030;2023-07-08T02:43:04;5.68;;;4.00;;
22622;SDS011;11478;51.094;7.030;2023-07-08T02:45:30;7.68;;;4.05;;
22622;SDS011;11478;51.094;7.030;2023-07-08T02:47:56;8.07;;;4.10;;
22622;SDS011;11478;51.094;7.030;2023-07-08T02:50:26;7.15;;;4.28;;
22622;SDS011;11478;51.094;7.030;2023-07-08T02:52:52;7.28;;;4.20;;
22622;SDS011;11478;51.094;7.030;2023-07-08T02:55:19;5.88;;;4.15;;
22622;SDS011;11478;51.094;7.030;2023-07-08T02:57:44;7.15;;;4.15;;
22622;SDS011;11478;51.094;7.030;2023-07-08T03:00:29;6.55;;;4.22;;
22622;SDS011;11478;51.094;7.030;2023-07-08T03:05:23;6.65;;;4.07;;
22622;SDS011;11478;51.094;7.030;2023-07-08T03:07:48;10.30;;;4.43;;
22622;SDS011;11478;51.094;7.030;2023-07-08T03:10:22;6.78;;;4.07;;
22622;SDS011;11478;51.094;7.030;2023-07-08T03:12:48;5.75;;;4.13;;
22622;SDS011;11478;51.094;7.030;2023-07-08T03:15:21;6.82;;;4.55;;
22622;SDS011;11478;51.094;7.030;2023-07-08T03:17:47;7.00;;;3.97;;
22622;SDS011;11478;51.094;7.030;2023-07-08T03:20:14;7.72;;;4.30;;
22622;SDS011;11478;51.094;7.030;2023-07-08T03:22:40;7.50;;;4.00;;
22622;SDS011;11478;51.094;7.030;2023-07-08T03:25:14;5.80;;;3.78;;
22622;SDS011;11478;51.094;7.030;2023-07-08T03:27:40;7.13;;;4.03;;
22622;SDS011;11478;51.094;7.030;2023-07-08T03:30:08;9.20;;;4.25;;
22622;SDS011;11478;51.094;7.030;2023-07-08T03:32:35;6.25;;;4.30;;
22622;SDS011;11478;51.094;7.030;2023-07-08T03:35:00;7.90;;;4.25;;
22622;SDS011;11478;51.094;7.030;2023-07-08T03:37:28;7.30;;;4.15;;
22622;SDS011;11478;51.094;7.030;2023-07-08T03:39:54;5.90;;;3.88;;
22622;SDS011;11478;51.094;7.030;2023-07-08T03:42:24;6.45;;;4.10;;
22622;SDS011;11478;51.094;7.030;2023-07-08T03:44:49;5.25;;;4.07;;
22622;SDS011;11478;51.094;7.030;2023-07-08T03:47:29;4.88;;;4.00;;
22622;SDS011;11478;51.094;7.030;2023-07-08T03:49:54;6.25;;;4.18;;
22622;SDS011;11478;51.094;7.030;2023-07-08T03:52:34;7.28;;;4.03;;
22622;SDS011;11478;51.094;7.030;2023-07-08T03:55:00;6.57;;;4.55;;
22622;SDS011;11478;51.094;7.030;2023-07-08T03:57:26;4.65;;;4.00;;
22622;SDS011;11478;51.094;7.030;2023-07-08T03:59:52;7.22;;;4.22;;
22622;SDS011;11478;51.094;7.030;2023-07-08T04:02:18;6.68;;;4.00;;
22622;SDS011;11478;51.094;7.030;2023-07-08T04:04:44;7.15;;;4.05;;
22622;SDS011;11478;51.094;7.030;2023-07-08T04:07:11;6.63;;;4.20;;
22622;SDS011;11478;51.094;7.030;2023-07-08T04:09:37;6.50;;;4.25;;
22622;SDS011;11478;51.094;7.030;2023-07-08T04:12:05;7.53;;;4.50;;
22622;SDS011;11478;51.094;7.030;2023-07-08T04:14:33;5.68;;;4.28;;
22622;SDS011;11478;51.094;7.030;2023-07-08T04:17:14;7.32;;;3.95;;
22622;SDS011;11478;51.094;7.030;2023-07-08T04:19:43;8.35;;;4.43;;
22622;SDS011;11478;51.094;7.030;2023-07-08T04:22:09;7.38;;;4.32;;
22622;SDS011;11478;51.094;7.030;2023-07-08T04:24:35;7.60;;;4.30;;
22622;SDS011;11478;51.094;7.030;2023-07-08T04:27:15;6.50;;;4.32;;
22622;SDS011;11478;51.094;7.030;2023-07-08T04:29:42;6.55;;;4.35;;
22622;SDS011;11478;51.094;7.030;2023-07-08T04:34:38;11.77;;;4.50;;
22622;SDS011;11478;51.094;7.030;2023-07-08T04:37:05;5.07;;;4.00;;
22622;SDS011;11478;51.094;7.030;2023-07-08T04:39:33;5.40;;;4.28;;
22622;SDS011;11478;51.094;7.030;2023-07-08T04:42:04;5.30;;;4.32;;
22622;SDS011;11478;51.094;7.030;2023-07-08T04:44:30;7.45;;;4.47;;
22622;SDS011;11478;51.094;7.030;2023-07-08T04:47:00;9.02;;;5.00;;
22622;SDS011;11478;51.094;7.030;2023-07-08T04:49:26;7.43;;;4.70;;
22622;SDS011;11478;51.094;7.030;2023-07-08T04:51:59;7.85;;;4.50;;
22622;SDS011;11478;51.094;7.030;2023-07-08T04:54:24;5.63;;;4.40;;
22622;SDS011;11478;51.094;7.030;2023-07-08T04:56:54;5.60;;;4.25;;
22622;SDS011;11478;51.094;7.030;2023-07-08T04:59:21;7.82;;;4.68;;
22622;SDS011;11478;51.094;7.030;2023-07-08T05:01:52;6.15;;;4.25;;
22622;SDS011;11478;51.094;7.030;2023-07-08T05:04:19;5.70;;;4.05;;
22622;SDS011;11478;51.094;7.030;2023-07-08T05:06:52;7.03;;;4.22;;
22622;SDS011;11478;51.094;7.030;2023-07-08T05:09:18;6.60;;;4.53;;
22622;SDS011;11478;51.094;7.030;2023-07-08T05:11:44;9.30;;;4.47;;
22622;SDS011;11478;51.094;7.030;2023-07-08T05:14:11;6.85;;;4.28;;
22622;SDS011;11478;51.094;7.030;2023-07-08T05:16:37;8.02;;;4.43;;
22622;SDS011;11478;51.094;7.030;2023-07-08T05:19:03;5.55;;;4.20;;
22622;SDS011;11478;51.094;7.030;2023-07-08T05:21:31;6.53;;;4.60;;
22622;SDS011;11478;51.094;7.030;2023-07-08T05:24:03;5.50;;;4.55;;
22622;SDS011;11478;51.094;7.030;2023-07-08T05:26:36;7.47;;;5.35;;
22622;SDS011;11478;51.094;7.030;2023-07-08T05:29:02;6.60;;;4.63;;
22622;SDS011;11478;51.094;7.030;2023-07-08T05:36:46;8.63;;;4.78;;
22622;SDS011;11478;51.094;7.030;2023-07-08T05:39:16;6.28;;;4.55;;
22622;SDS011;11478;51.094;7.030;2023-07-08T05:41:47;6.68;;;4.88;;
22622;SDS011;11478;51.094;7.030;2023-07-08T05:44:19;5.93;;;4.75;;
22622;SDS011;11478;51.094;7.030;2023-07-08T05:46:44;8.40;;;4.70;;
22622;SDS011;11478;51.094;7.030;2023-07-08T05:49:16;7.38;;;4.43;;
22622;SDS011;11478;51.094;7.030;2023-07-08T05:51:45;6.22;;;4.53;;
22622;SDS011;11478;51.094;7.030;2023-07-08T05:54:11;6.93;;;4.70;;
22622;SDS011;11478;51.094;7.030;2023-07-08T05:56:37;5.03;;;4.22;;
22622;SDS011;11478;51.094;7.030;2023-07-08T05:59:06;6.43;;;4.30;;
22622;SDS011;11478;51.094;7.030;2023-07-08T06:01:32;5.15;;;4.32;;
22622;SDS011;11478;51.094;7.030;2023-07-08T06:04:00;9.38;;;4.60;;
22622;SDS011;11478;51.094;7.030;2023-07-08T06:06:26;10.63;;;4.68;;
22622;SDS011;11478;51.094;7.030;2023-07-08T06:08:55;8.07;;;4.57;;
22622;SDS011;11478;51.094;7.030;2023-07-08T06:11:21;9.75;;;4.53;;
22622;SDS011;11478;51.094;7.030;2023-07-08T06:16:21;7.22;;;4.50;;
22622;SDS011;11478;51.094;7.030;2023-07-08T06:19:09;5.90;;;4.25;;
22622;SDS011;11478;51.094;7.030;2023-07-08T06:21:54;6.22;;;4.55;;
22622;SDS011;11478;51.094;7.030;2023-07-08T06:24:20;28.40;;;6.88;;
22622;SDS011;11478;51.094;7.030;2023-07-08T06:26:46;22.08;;;5.65;;
22622;SDS011;11478;51.094;7.030;2023-07-08T06:29:12;12.15;;;4.97;;
22622;SDS011;11478;51.094;7.030;2023-07-08T06:31:41;7.35;;;4.85;;
22622;SDS011;11478;51.094;7.030;2023-07-08T06:36:55;6.78;;;4.60;;
22622;SDS011;11478;51.094;7.030;2023-07-08T06:39:26;5.97;;;4.20;;
22622;SDS011;11478;51.094;7.030;2023-07-08T06:41:52;6.47;;;4.70;;
22622;SDS011;11478;51.094;7.030;2023-07-08T06:44:18;6.28;;;4.47;;
22622;SDS011;11478;51.094;7.030;2023-07-08T06:46:44;6.20;;;4.68;;
22622;SDS011;11478;51.094;7.030;2023-07-08T06:51:40;7.38;;;4.68;;
22622;SDS011;11478;51.094;7.030;2023-07-08T06:54:08;5.47;;;4.55;;
22622;SDS011;11478;51.094;7.030;2023-07-08T06:56:37;7.95;;;5.13;;
22622;SDS011;11478;51.094;7.030;2023-07-08T06:59:08;7.18;;;4.78;;
22622;SDS011;11478;51.094;7.030;2023-07-08T07:01:34;7.55;;;5.05;;
22622;SDS011;11478;51.094;7.030;2023-07-08T07:04:14;10.65;;;5.07;;
22622;SDS011;11478;51.094;7.030;2023-07-08T07:06:40;7.50;;;5.18;;
22622;SDS011;11478;51.094;7.030;2023-07-08T07:09:08;7.25;;;5.00;;
22622;SDS011;11478;51.094;7.030;2023-07-08T07:11:34;5.85;;;4.53;;
22622;SDS011;11478;51.094;7.030;2023-07-08T07:14:00;6.78;;;4.95;;
22622;SDS011;11478;51.094;7.030;2023-07-08T07:16:25;5.25;;;4.72;;
22622;SDS011;11478;51.094;7.030;2023-07-08T07:18:54;5.43;;;4.53;;
22622;SDS011;11478;51.094;7.030;2023-07-08T07:21:20;7.05;;;4.60;;
22622;SDS011;11478;51.094;7.030;2023-07-08T07:24:01;7.20;;;4.60;;
22622;SDS011;11478;51.094;7.030;2023-07-08T07:26:27;5.95;;;5.00;;
22622;SDS011;11478;51.094;7.030;2023-07-08T07:28:57;6.80;;;4.97;;
22622;SDS011;11478;51.094;7.030;2023-07-08T07:31:23;6.38;;;4.68;;
22622;SDS011;11478;51.094;7.030;2023-07-08T07:33:49;6.63;;;4.90;;
22622;SDS011;11478;51.094;7.030;2023-07-08T07:36:15;7.05;;;4.93;;
22622;SDS011;11478;51.094;7.030;2023-07-08T07:38:41;8.15;;;6.88;;
22622;SDS011;11478;51.094;7.030;2023-07-08T07:43:37;8.82;;;6.72;;
22622;SDS011;11478;51.094;7.030;2023-07-08T07:46:04;9.23;;;6.97;;
22622;SDS011;11478;51.094;7.030;2023-07-08T07:48:31;9.05;;;5.90;;
22622;SDS011;11478;51.094;7.030;2023-07-08T07:50:58;6.25;;;5.10;;
22622;SDS011;11478;51.094;7.030;2023-07-08T07:53:24;8.02;;;5.30;;
22622;SDS011;11478;51.094;7.030;2023-07-08T07:56:03;8.13;;;5.03;;
22622;SDS011;11478;51.094;7.030;2023-07-08T07:58:29;14.85;;;7.35;;
22622;SDS011;11478;51.094;7.030;2023-07-08T08:00:59;9.10;;;5.53;;
22622;SDS011;11478;51.094;7.030;2023-07-08T08:03:25;7.05;;;5.70;;
22622;SDS011;11478;51.094;7.030;2023-07-08T08:05:52;8.02;;;5.25;;
22622;SDS011;11478;51.094;7.030;2023-07-08T08:08:18;7.25;;;5.63;;
22622;SDS011;11478;51.094;7.030;2023-07-08T08:13:14;7.20;;;4.90;;
22622;SDS011;11478;51.094;7.030;2023-07-08T08:15:55;8.57;;;5.63;;
22622;SDS011;11478;51.094;7.030;2023-07-08T08:18:22;7.38;;;5.30;;
22622;SDS011;11478;51.094;7.030;2023-07-08T08:21:05;7.30;;;5.10;;
22622;SDS011;11478;51.094;7.030;2023-07-08T08:23:30;10.30;;;5.63;;
22622;SDS011;11478;51.094;7.030;2023-07-08T08:25:58;9.30;;;5.40;;
22622;SDS011;11478;51.094;7.030;2023-07-08T08:28:24;6.93;;;5.50;;
22622;SDS011;11478;51.094;7.030;2023-07-08T08:30:52;8.35;;;5.68;;
22622;SDS011;11478;51.094;7.030;2023-07-08T08:33:18;8.55;;;5.20;;
22622;SDS011;11478;51.094;7.030;2023-07-08T08:35:44;8.82;;;5.20;;
22622;SDS011;11478;51.094;7.030;2023-07-08T08:38:21;6.75;;;5.32;;
22622;SDS011;11478;51.094;7.030;2023-07-08T08:40:47;7.38;;;5.20;;
22622;SDS011;11478;51.094;7.030;2023-07-08T08:43:24;9.07;;;5.47;;
22622;SDS011;11478;51.094;7.030;2023-07-08T08:46:02;6.30;;;4.65;;
22622;SDS011;11478;51.094;7.030;2023-07-08T08:49:37;11.27;;;4.90;;
22622;SDS011;11478;51.094;7.030;2023-07-08T08:51:38;8.23;;;5.05;;
22622;SDS011;11478;51.094;7.030;2023-07-08T08:54:06;8.77;;;5.13;;
22622;SDS011;11478;51.094;7.030;2023-07-08T08:56:55;6.38;;;4.32;;
22622;SDS011;11478;51.094;7.030;2023-07-08T08:59:42;7.00;;;4.97;;
22622;SDS011;11478;51.094;7.030;2023-07-08T09:02:25;8.07;;;4.90;;
22622;SDS011;11478;51.094;7.030;2023-07-08T09:05:08;8.13;;;4.90;;
22622;SDS011;11478;51.094;7.030;2023-07-08T09:11:01;6.85;;;4.53;;
22622;SDS011;11478;51.094;7.030;2023-07-08T09:13:52;7.07;;;4.80;;
22622;SDS011;11478;51.094;7.030;2023-07-08T09:19:14;7.70;;;4.38;;
22622;SDS011;11478;51.094;7.030;2023-07-08T09:27:41;6.93;;;4.32;;
22622;SDS011;11478;51.094;7.030;2023-07-08T09:30:10;5.65;;;4.70;;
22622;SDS011;11478;51.094;7.030;2023-07-08T09:32:43;5.85;;;4.22;;
22622;SDS011;11478;51.094;7.030;2023-07-08T09:38:17;7.18;;;4.40;;
22622;SDS011;11478;51.094;7.030;2023-07-08T09:43:38;7.18;;;4.40;;
22622;SDS011;11478;51.094;7.030;2023-07-08T09:46:15;7.55;;;4.85;;
22622;SDS011;11478;51.094;7.030;2023-07-08T09:48:41;6.45;;;4.57;;
22622;SDS011;11478;51.094;7.030;2023-07-08T09:51:09;5.18;;;3.90;;
22622;SDS011;11478;51.094;7.030;2023-07-08T09:53:35;5.10;;;3.97;;
22622;SDS011;11478;51.094;7.030;2023-07-08T09:56:03;8.80;;;4.70;;
22622;SDS011;11478;51.094;7.030;2023-07-08T09:58:34;11.75;;;4.18;;
22622;SDS011;11478;51.094;7.030;2023-07-08T10:01:10;7.10;;;4.32;;
22622;SDS011;11478;51.094;7.030;2023-07-08T10:03:41;5.85;;;4.07;;
22622;SDS011;11478;51.094;7.030;2023-07-08T10:06:19;10.30;;;4.43;;
22622;SDS011;11478;51.094;7.030;2023-07-08T10:08:52;7.05;;;4.07;;
22622;SDS011;11478;51.094;7.030;2023-07-08T10:11:35;8.45;;;4.10;;
22622;SDS011;11478;51.094;7.030;2023-07-08T10:16:55;6.45;;;4.53;;
22622;SDS011;11478;51.094;7.030;2023-07-08T10:19:21;5.30;;;3.72;;
22622;SDS011;11478;51.094;7.030;2023-07-08T10:33:52;5.75;;;4.40;;
22622;SDS011;11478;51.094;7.030;2023-07-08T10:36:48;6.40;;;4.50;;
22622;SDS011;11478;51.094;7.030;2023-07-08T11:04:20;7.38;;;4.57;;
22622;SDS011;11478;51.094;7.030;2023-07-08T11:07:15;4.68;;;3.60;;
22622;SDS011;11478;51.094;7.030;2023-07-08T11:09:52;5.15;;;3.97;;
22622;SDS011;11478;51.094;7.030;2023-07-08T11:12:40;6.53;;;4.03;;
22622;SDS011;11478;51.094;7.030;2023-07-08T11:15:30;5.90;;;3.80;;
22622;SDS011;11478;51.094;7.030;2023-07-08T11:21:12;5.90;;;4.43;;
22622;SDS011;11478;51.094;7.030;2023-07-08T11:29:48;7.53;;;3.85;;
22622;SDS011;11478;51.094;7.030;2023-07-08T11:32:23;6.38;;;4.13;;
22622;SDS011;11478;51.094;7.030;2023-07-08T11:38:22;7.15;;;4.10;;
22622;SDS011;11478;51.094;7.030;2023-07-08T11:46:38;7.72;;;3.88;;
22622;SDS011;11478;51.094;7.030;2023-07-08T11:49:20;6.43;;;3.85;;
22622;SDS011;11478;51.094;7.030;2023-07-08T11:51:50;7.35;;;4.05;;
22622;SDS011;11478;51.094;7.030;2023-07-08T11:54:20;11.40;;;5.57;;
22622;SDS011;11478;51.094;7.030;2023-07-08T11:57:16;6.63;;;4.03;;
22622;SDS011;11478;51.094;7.030;2023-07-08T11:59:45;7.63;;;3.73;;
22622;SDS011;11478;51.094;7.030;2023-07-08T12:02:14;7.10;;;3.90;;
22622;SDS011;11478;51.094;7.030;2023-07-08T12:04:56;6.35;;;3.80;;
22622;SDS011;11478;51.094;7.030;2023-07-08T12:08:00;5.40;;;3.70;;
22622;SDS011;11478;51.094;7.030;2023-07-08T12:10:27;6.78;;;4.03;;
22622;SDS011;11478;51.094;7.030;2023-07-08T12:12:59;6.65;;;4.32;;
22622;SDS011;11478;51.094;7.030;2023-07-08T12:15:32;7.35;;;3.95;;
22622;SDS011;11478;51.094;7.030;2023-07-08T12:18:05;6.70;;;3.83;;
22622;SDS011;11478;51.094;7.030;2023-07-08T12:20:34;6.95;;;3.92;;
22622;SDS011;11478;51.094;7.030;2023-07-08T12:23:02;6.00;;;3.75;;
22622;SDS011;11478;51.094;7.030;2023-07-08T12:28:12;4.93;;;3.50;;
22622;SDS011;11478;51.094;7.030;2023-07-08T12:30:39;7.60;;;3.88;;
22622;SDS011;11478;51.094;7.030;2023-07-08T12:33:14;5.80;;;3.60;;
22622;SDS011;11478;51.094;7.030;2023-07-08T12:35:47;5.07;;;3.63;;
22622;SDS011;11478;51.094;7.030;2023-07-08T12:38:29;5.90;;;3.92;;
22622;SDS011;11478;51.094;7.030;2023-07-08T12:41:01;4.97;;;3.88;;
22622;SDS011;11478;51.094;7.030;2023-07-08T12:43:43;7.97;;;4.10;;
22622;SDS011;11478;51.094;7.030;2023-07-08T12:46:12;7.30;;;3.42;;
22622;SDS011;11478;51.094;7.030;2023-07-08T12:48:42;5.88;;;3.78;;
22622;SDS011;11478;51.094;7.030;2023-07-08T12:51:22;5.30;;;4.00;;
22622;SDS011;11478;51.094;7.030;2023-07-08T12:53:50;4.93;;;3.53;;
22622;SDS011;11478;51.094;7.030;2023-07-08T12:56:23;7.60;;;4.07;;
22622;SDS011;11478;51.094;7.030;2023-07-08T12:58:51;6.43;;;3.70;;
22622;SDS011;11478;51.094;7.030;2023-07-08T13:01:20;4.55;;;3.50;;
22622;SDS011;11478;51.094;7.030;2023-07-08T13:03:52;7.85;;;3.88;;
22622;SDS011;11478;51.094;7.030;2023-07-08T13:08:54;7.32;;;4.00;;
22622;SDS011;11478;51.094;7.030;2023-07-08T13:11:31;6.57;;;3.85;;
22622;SDS011;11478;51.094;7.030;2023-07-08T13:14:06;5.75;;;3.88;;
22622;SDS011;11478;51.094;7.030;2023-07-08T13:16:41;5.45;;;3.67;;
22622;SDS011;11478;51.094;7.030;2023-07-08T13:21:45;9.77;;;4.32;;
22622;SDS011;11478;51.094;7.030;2023-07-08T13:24:12;7.40;;;4.13;;
22622;SDS011;11478;51.094;7.030;2023-07-08T13:26:41;6.97;;;3.58;;
22622;SDS011;11478;51.094;7.030;2023-07-08T13:31:55;9.25;;;4.07;;
22622;SDS011;11478;51.094;7.030;2023-07-08T13:34:26;7.55;;;3.95;;
22622;SDS011;11478;51.094;7.030;2023-07-08T13:36:52;5.68;;;4.03;;
22622;SDS011;11478;51.094;7.030;2023-07-08T13:39:21;6.97;;;4.40;;
22622;SDS011;11478;51.094;7.030;2023-07-08T13:41:58;5.80;;;4.45;;
22622;SDS011;11478;51.094;7.030;2023-07-08T13:44:33;5.32;;;3.70;;
22622;SDS011;11478;51.094;7.030;2023-07-08T13:49:31;6.70;;;4.07;;
22622;SDS011;11478;51.094;7.030;2023-07-08T13:52:17;8.10;;;4.43;;
22622;SDS011;11478;51.094;7.030;2023-07-08T13:59:53;7.10;;;4.38;;
22622;SDS011;11478;51.094;7.030;2023-07-08T14:02:24;7.28;;;4.38;;
22622;SDS011;11478;51.094;7.030;2023-07-08T14:25:04;6.50;;;4.00;;
22622;SDS011;11478;51.094;7.030;2023-07-08T14:27:49;6.88;;;4.50;;
22622;SDS011;11478;51.094;7.030;2023-07-08T14:30:38;13.60;;;4.30;;
22622;SDS011;11478;51.094;7.030;2023-07-08T14:33:32;7.53;;;4.70;;
22622;SDS011;11478;51.094;7.030;2023-07-08T14:36:55;6.65;;;4.47;;
22622;SDS011;11478;51.094;7.030;2023-07-08T14:40:18;6.07;;;4.30;;
22622;SDS011;11478;51.094;7.030;2023-07-08T14:42:54;8.13;;;4.63;;
22622;SDS011;11478;51.094;7.030;2023-07-08T14:45:46;8.35;;;4.50;;
22622;SDS011;11478;51.094;7.030;2023-07-08T14:51:05;6.63;;;4.40;;
22622;SDS011;11478;51.094;7.030;2023-07-08T14:53:32;9.95;;;5.03;;
22622;SDS011;11478;51.094;7.030;2023-07-08T14:58:54;5.70;;;4.30;;
22622;SDS011;11478;51.094;7.030;2023-07-08T15:01:23;5.53;;;4.38;;
22622;SDS011;11478;51.094;7.030;2023-07-08T15:03:51;11.00;;;4.47;;
22622;SDS011;11478;51.094;7.030;2023-07-08T15:06:20;7.60;;;4.30;;
22622;SDS011;11478;51.094;7.030;2023-07-08T15:08:50;9.23;;;4.45;;
22622;SDS011;11478;51.094;7.030;2023-07-08T15:11:16;8.02;;;4.93;;
22622;SDS011;11478;51.094;7.030;2023-07-08T15:13:50;7.38;;;5.18;;
22622;SDS011;11478;51.094;7.030;2023-07-08T15:16:16;10.00;;;5.37;;
22622;SDS011;11478;51.094;7.030;2023-07-08T15:18:44;15.80;;;10.80;;
22622;SDS011;11478;51.094;7.030;2023-07-08T15:21:13;14.80;;;11.68;;
22622;SDS011;11478;51.094;7.030;2023-07-08T15:23:40;31.38;;;21.70;;
22622;SDS011;11478;51.094;7.030;2023-07-08T15:26:10;35.88;;;25.65;;
22622;SDS011;11478;51.094;7.030;2023-07-08T15:28:42;43.03;;;31.77;;
22622;SDS011;11478;51.094;7.030;2023-07-08T15:31:20;37.17;;;27.85;;
22622;SDS011;11478;51.094;7.030;2023-07-08T15:33:50;32.72;;;25.05;;
22622;SDS011;11478;51.094;7.030;2023-07-08T15:36:19;25.42;;;16.13;;
22622;SDS011;11478;51.094;7.030;2023-07-08T15:38:49;11.27;;;8.27;;
22622;SDS011;11478;51.094;7.030;2023-07-08T15:43:55;8.35;;;5.28;;
22622;SDS011;11478;51.094;7.030;2023-07-08T15:49:16;8.02;;;5.32;;
22622;SDS011;11478;51.094;7.030;2023-07-08T15:51:55;6.57;;;4.97;;
22622;SDS011;11478;51.094;7.030;2023-07-08T15:54:22;7.95;;;4.53;;
22622;SDS011;11478;51.094;7.030;2023-07-08T15:56:52;9.55;;;5.13;;
22622;SDS011;11478;51.094;7.030;2023-07-08T15:59:32;6.97;;;4.50;;
22622;SDS011;11478;51.094;7.030;2023-07-08T16:02:00;7.22;;;4.35;;
22622;SDS011;11478;51.094;7.030;2023-07-08T16:04:31;6.15;;;4.45;;
22622;SDS011;11478;51.094;7.030;2023-07-08T16:07:01;7.03;;;4.90;;
22622;SDS011;11478;51.094;7.030;2023-07-08T16:09:30;6.47;;;4.78;;
22622;SDS011;11478;51.094;7.030;2023-07-08T16:14:48;8.88;;;4.60;;
22622;SDS011;11478;51.094;7.030;2023-07-08T16:17:17;7.22;;;4.65;;
22622;SDS011;11478;51.094;7.030;2023-07-08T16:20:04;6.70;;;4.60;;
22622;SDS011;11478;51.094;7.030;2023-07-08T16:26:26;32.28;;;22.15;;
22622;SDS011;11478;51.094;7.030;2023-07-08T16:32:31;14.70;;;9.70;;
22622;SDS011;11478;51.094;7.030;2023-07-08T16:35:01;9.18;;;6.10;;
22622;SDS011;11478;51.094;7.030;2023-07-08T16:37:27;11.20;;;5.40;;
22622;SDS011;11478;51.094;7.030;2023-07-08T16:39:56;9.00;;;4.72;;
22622;SDS011;11478;51.094;7.030;2023-07-08T16:42:25;7.93;;;4.85;;
22622;SDS011;11478;51.094;7.030;2023-07-08T16:44:59;7.97;;;4.75;;
22622;SDS011;11478;51.094;7.030;2023-07-08T16:50:54;8.43;;;4.53;;
22622;SDS011;11478;51.094;7.030;2023-07-08T16:56:55;10.63;;;4.85;;
22622;SDS011;11478;51.094;7.030;2023-07-08T16:59:21;7.22;;;5.03;;
22622;SDS011;11478;51.094;7.030;2023-07-08T17:01:58;10.13;;;5.20;;
22622;SDS011;11478;51.094;7.030;2023-07-08T17:04:27;8.40;;;4.70;;
22622;SDS011;11478;51.094;7.030;2023-07-08T17:06:54;9.57;;;4.93;;
22622;SDS011;11478;51.094;7.030;2023-07-08T17:09:22;8.02;;;4.90;;
22622;SDS011;11478;51.094;7.030;2023-07-08T17:11:53;6.32;;;4.63;;
22622;SDS011;11478;51.094;7.030;2023-07-08T17:14:28;7.55;;;5.13;;
22622;SDS011;11478;51.094;7.030;2023-07-08T17:19:30;7.50;;;4.82;;
22622;SDS011;11478;51.094;7.030;2023-07-08T17:25:28;11.07;;;4.97;;
22622;SDS011;11478;51.094;7.030;2023-07-08T17:28:11;9.50;;;4.82;;
22622;SDS011;11478;51.094;7.030;2023-07-08T17:30:41;8.60;;;5.00;;
22622;SDS011;11478;51.094;7.030;2023-07-08T17:35:50;11.20;;;5.32;;
22622;SDS011;11478;51.094;7.030;2023-07-08T17:41:10;10.48;;;5.82;;
22622;SDS011;11478;51.094;7.030;2023-07-08T17:43:45;9.38;;;5.30;;
22622;SDS011;11478;51.094;7.030;2023-07-08T17:46:23;9.07;;;5.15;;
22622;SDS011;11478;51.094;7.030;2023-07-08T17:48:52;8.52;;;5.50;;
22622;SDS011;11478;51.094;7.030;2023-07-08T17:51:19;8.10;;;4.82;;
22622;SDS011;11478;51.094;7.030;2023-07-08T17:53:51;9.18;;;5.65;;
22622;SDS011;11478;51.094;7.030;2023-07-08T17:56:34;8.60;;;5.22;;
22622;SDS011;11478;51.094;7.030;2023-07-08T17:59:09;7.25;;;5.25;;
22622;SDS011;11478;51.094;7.030;2023-07-08T18:01:52;6.25;;;4.90;;
22622;SDS011;11478;51.094;7.030;2023-07-08T18:04:23;8.90;;;5.38;;
22622;SDS011;11478;51.094;7.030;2023-07-08T18:07:01;11.77;;;5.60;;
22622;SDS011;11478;51.094;7.030;2023-07-08T18:09:29;9.80;;;5.40;;
22622;SDS011;11478;51.094;7.030;2023-07-08T18:12:11;8.38;;;5.30;;